sensor_id;sensor_type;location;lat;lon;timestamp;P1;durP1;ratioP1;P2;durP2;ratioP2
57307;SDS011;43152;50.968;18.214;2023-01-01T00:02:02;19.90;;;7.50;;
57307;SDS011;43152;50.968;18.214;2023-01-01T00:12:02;15.80;;;5.60;;
57307;SDS011;43152;50.968;18.214;2023-01-01T00:21:46;19.70;;;5.60;;
57307;SDS011;43152;50.968;18.214;2023-01-01T00:31:29;20.40;;;6.50;;
57307;SDS011;43152;50.968;18.214;2023-01-01T00:41:13;10.40;;;2.90;;
57307;SDS011;43152;50.968;18.214;2023-01-01T00:50:57;20.90;;;7.40;;
57307;SDS011;43152;50.968;18.214;2023-01-01T01:00:40;20.70;;;8.20;;
57307;SDS011;43152;50.968;18.214;2023-01-01T01:10:23;32.50;;;8.90;;
57307;SDS011;43152;50.968;18.214;2023-01-01T01:27:52;31.20;;;4.70;;
57307;SDS011;43152;50.968;18.214;2023-01-01T01:37:34;24.90;;;6.40;;
57307;SDS011;43152;50.968;18.214;2023-01-01T02:03:22;35.50;;;8.00;;
57307;SDS011;43152;50.968;18.214;2023-01-01T02:13:07;41.20;;;9.70;;
57307;SDS011;43152;50.968;18.214;2023-01-01T02:33:24;23.30;;;6.70;;
57307;SDS011;43152;50.968;18.214;2023-01-01T02:43:19;15.70;;;6.40;;
57307;SDS011;43152;50.968;18.214;2023-01-01T02:53:25;16.40;;;6.20;;
57307;SDS011;43152;50.968;18.214;2023-01-01T03:15:12;12.70;;;6.60;;
57307;SDS011;43152;50.968;18.214;2023-01-01T03:25:36;7.70;;;2.00;;
57307;SDS011;43152;50.968;18.214;2023-01-01T03:46:06;19.30;;;6.60;;
57307;SDS011;43152;50.968;18.214;2023-01-01T03:56:39;18.90;;;5.10;;
57307;SDS011;43152;50.968;18.214;2023-01-01T04:06:36;12.50;;;1.60;;
57307;SDS011;43152;50.968;18.214;2023-01-01T04:16:39;12.00;;;4.80;;
57307;SDS011;43152;50.968;18.214;2023-01-01T04:26:24;8.60;;;3.80;;
57307;SDS011;43152;50.968;18.214;2023-01-01T04:36:08;12.70;;;5.50;;
57307;SDS011;43152;50.968;18.214;2023-01-01T04:45:59;15.40;;;5.90;;
57307;SDS011;43152;50.968;18.214;2023-01-01T04:55:47;12.20;;;4.60;;
57307;SDS011;43152;50.968;18.214;2023-01-01T05:05:30;16.70;;;3.90;;
57307;SDS011;43152;50.968;18.214;2023-01-01T05:15:12;13.20;;;3.50;;
57307;SDS011;43152;50.968;18.214;2023-01-01T05:24:55;36.10;;;12.00;;
57307;SDS011;43152;50.968;18.214;2023-01-01T05:34:38;19.60;;;4.40;;
57307;SDS011;43152;50.968;18.214;2023-01-01T05:58:54;12.20;;;4.00;;
57307;SDS011;43152;50.968;18.214;2023-01-01T06:08:41;8.70;;;2.00;;
57307;SDS011;43152;50.968;18.214;2023-01-01T06:18:27;12.20;;;4.20;;
57307;SDS011;43152;50.968;18.214;2023-01-01T06:28:11;36.00;;;10.20;;
57307;SDS011;43152;50.968;18.214;2023-01-01T06:37:55;21.10;;;7.30;;
57307;SDS011;43152;50.968;18.214;2023-01-01T07:02:14;14.20;;;2.50;;
57307;SDS011;43152;50.968;18.214;2023-01-01T07:11:57;14.10;;;5.50;;
57307;SDS011;43152;50.968;18.214;2023-01-01T07:21:40;10.80;;;3.20;;
57307;SDS011;43152;50.968;18.214;2023-01-01T07:31:26;13.40;;;4.40;;
57307;SDS011;43152;50.968;18.214;2023-01-01T07:41:08;10.30;;;2.30;;
57307;SDS011;43152;50.968;18.214;2023-01-01T07:50:52;8.60;;;3.90;;
57307;SDS011;43152;50.968;18.214;2023-01-01T08:00:36;5.80;;;2.70;;
57307;SDS011;43152;50.968;18.214;2023-01-01T08:10:18;16.20;;;4.10;;
57307;SDS011;43152;50.968;18.214;2023-01-01T08:20:01;7.50;;;1.90;;
57307;SDS011;43152;50.968;18.214;2023-01-01T08:29:44;8.50;;;2.70;;
57307;SDS011;43152;50.968;18.214;2023-01-01T08:39:29;8.20;;;2.20;;
57307;SDS011;43152;50.968;18.214;2023-01-01T08:49:11;12.40;;;3.10;;
57307;SDS011;43152;50.968;18.214;2023-01-01T09:06:12;14.10;;;1.80;;
57307;SDS011;43152;50.968;18.214;2023-01-01T09:15:55;12.90;;;4.00;;
57307;SDS011;43152;50.968;18.214;2023-01-01T09:25:38;11.30;;;5.30;;
57307;SDS011;43152;50.968;18.214;2023-01-01T09:35:26;10.40;;;1.90;;
57307;SDS011;43152;50.968;18.214;2023-01-01T09:45:41;9.70;;;3.00;;
57307;SDS011;43152;50.968;18.214;2023-01-01T09:56:10;12.90;;;5.30;;
57307;SDS011;43152;50.968;18.214;2023-01-01T10:23:49;38.00;;;15.40;;
57307;SDS011;43152;50.968;18.214;2023-01-01T10:33:43;40.80;;;24.60;;
57307;SDS011;43152;50.968;18.214;2023-01-01T10:43:28;28.20;;;15.30;;
57307;SDS011;43152;50.968;18.214;2023-01-01T10:53:21;15.30;;;6.30;;
57307;SDS011;43152;50.968;18.214;2023-01-01T11:03:23;26.00;;;10.20;;
57307;SDS011;43152;50.968;18.214;2023-01-01T11:13:17;16.90;;;7.90;;
57307;SDS011;43152;50.968;18.214;2023-01-01T11:23:27;15.40;;;5.60;;
57307;SDS011;43152;50.968;18.214;2023-01-01T11:33:26;8.70;;;4.00;;
57307;SDS011;43152;50.968;18.214;2023-01-01T11:43:15;11.50;;;4.40;;
57307;SDS011;43152;50.968;18.214;2023-01-01T12:00:58;9.80;;;2.90;;
57307;SDS011;43152;50.968;18.214;2023-01-01T12:11:41;8.80;;;2.90;;
57307;SDS011;43152;50.968;18.214;2023-01-01T13:00:56;14.70;;;5.80;;
57307;SDS011;43152;50.968;18.214;2023-01-01T13:10:44;21.30;;;11.10;;
57307;SDS011;43152;50.968;18.214;2023-01-01T13:20:33;6.90;;;2.10;;
57307;SDS011;43152;50.968;18.214;2023-01-01T13:54:37;14.90;;;5.60;;
57307;SDS011;43152;50.968;18.214;2023-01-01T14:25:15;21.00;;;7.90;;
57307;SDS011;43152;50.968;18.214;2023-01-01T14:35:15;20.60;;;9.50;;
57307;SDS011;43152;50.968;18.214;2023-01-01T14:44:59;8.70;;;2.90;;
57307;SDS011;43152;50.968;18.214;2023-01-01T14:55:06;19.30;;;7.30;;
57307;SDS011;43152;50.968;18.214;2023-01-01T15:04:55;39.90;;;17.40;;
57307;SDS011;43152;50.968;18.214;2023-01-01T15:14:42;23.20;;;11.60;;
57307;SDS011;43152;50.968;18.214;2023-01-01T15:24:51;31.70;;;13.50;;
57307;SDS011;43152;50.968;18.214;2023-01-01T15:42:29;25.30;;;11.90;;
57307;SDS011;43152;50.968;18.214;2023-01-01T15:52:36;30.10;;;16.40;;
57307;SDS011;43152;50.968;18.214;2023-01-01T16:12:16;49.00;;;18.60;;
57307;SDS011;43152;50.968;18.214;2023-01-01T16:22:10;31.10;;;11.70;;
57307;SDS011;43152;50.968;18.214;2023-01-01T16:31:55;35.00;;;14.30;;
57307;SDS011;43152;50.968;18.214;2023-01-01T16:41:40;48.20;;;23.00;;
57307;SDS011;43152;50.968;18.214;2023-01-01T16:51:28;99.20;;;41.50;;
57307;SDS011;43152;50.968;18.214;2023-01-01T17:01:12;45.10;;;21.00;;
57307;SDS011;43152;50.968;18.214;2023-01-01T17:11:13;78.10;;;28.90;;
57307;SDS011;43152;50.968;18.214;2023-01-01T17:21:02;65.70;;;23.40;;
57307;SDS011;43152;50.968;18.214;2023-01-01T17:30:44;87.60;;;31.60;;
57307;SDS011;43152;50.968;18.214;2023-01-01T17:40:27;33.20;;;13.30;;
57307;SDS011;43152;50.968;18.214;2023-01-01T17:50:10;53.90;;;19.40;;
57307;SDS011;43152;50.968;18.214;2023-01-01T17:59:54;83.70;;;33.00;;
57307;SDS011;43152;50.968;18.214;2023-01-01T18:09:41;55.10;;;19.80;;
57307;SDS011;43152;50.968;18.214;2023-01-01T18:19:24;76.80;;;31.00;;
57307;SDS011;43152;50.968;18.214;2023-01-01T18:29:08;124.70;;;39.30;;
57307;SDS011;43152;50.968;18.214;2023-01-01T18:49:19;32.70;;;16.40;;
57307;SDS011;43152;50.968;18.214;2023-01-01T18:59:21;32.10;;;14.80;;
57307;SDS011;43152;50.968;18.214;2023-01-01T19:09:36;32.70;;;13.50;;
57307;SDS011;43152;50.968;18.214;2023-01-01T19:19:26;31.20;;;13.40;;
57307;SDS011;43152;50.968;18.214;2023-01-01T19:36:38;44.10;;;22.10;;
57307;SDS011;43152;50.968;18.214;2023-01-01T19:46:21;41.00;;;18.90;;
57307;SDS011;43152;50.968;18.214;2023-01-01T19:56:04;62.10;;;22.40;;
57307;SDS011;43152;50.968;18.214;2023-01-01T20:05:48;30.70;;;14.20;;
57307;SDS011;43152;50.968;18.214;2023-01-01T20:15:31;63.10;;;22.40;;
57307;SDS011;43152;50.968;18.214;2023-01-01T20:25:16;66.40;;;24.80;;
57307;SDS011;43152;50.968;18.214;2023-01-01T20:35:17;52.80;;;19.60;;
57307;SDS011;43152;50.968;18.214;2023-01-01T20:45:19;34.50;;;14.70;;
57307;SDS011;43152;50.968;18.214;2023-01-01T21:02:17;30.30;;;10.70;;
57307;SDS011;43152;50.968;18.214;2023-01-01T21:12:01;26.90;;;10.60;;
57307;SDS011;43152;50.968;18.214;2023-01-01T21:21:46;28.60;;;9.40;;
57307;SDS011;43152;50.968;18.214;2023-01-01T21:31:43;28.50;;;9.10;;
57307;SDS011;43152;50.968;18.214;2023-01-01T21:41:54;26.50;;;10.20;;
57307;SDS011;43152;50.968;18.214;2023-01-01T21:51:46;9.60;;;2.80;;
57307;SDS011;43152;50.968;18.214;2023-01-01T22:01:50;35.10;;;9.80;;
57307;SDS011;43152;50.968;18.214;2023-01-01T22:11:42;30.80;;;10.70;;
57307;SDS011;43152;50.968;18.214;2023-01-01T22:21:26;36.30;;;9.60;;
57307;SDS011;43152;50.968;18.214;2023-01-01T22:31:17;29.70;;;6.80;;
57307;SDS011;43152;50.968;18.214;2023-01-01T22:41:03;25.90;;;6.50;;
57307;SDS011;43152;50.968;18.214;2023-01-01T22:50:48;40.80;;;9.50;;
57307;SDS011;43152;50.968;18.214;2023-01-01T23:00:33;45.70;;;11.90;;
57307;SDS011;43152;50.968;18.214;2023-01-01T23:22:17;160.50;;;30.10;;
57307;SDS011;43152;50.968;18.214;2023-01-01T23:32:03;61.30;;;16.90;;
57307;SDS011;43152;50.968;18.214;2023-01-01T23:41:46;31.40;;;9.50;;
57307;SDS011;43152;50.968;18.214;2023-01-01T23:51:28;39.30;;;11.80;;
